Weather at Dcheira Heliport

Public forecast

Using degrees Celsius for public forecast. Weather courtesy of forecast.io.

Closest aviation weather report (METAR) to Dcheira Heliport

Closest report is Hassan I Airport, 15.2 nm (28.2 km) NW.

2023/02/05 03:00 (retrieved 1 hour ago)

GMML 050300Z 07012KT CAVOK 13/04 Q1025 NOSIG

Closest aviation forecast (TAF) to Dcheira Heliport

Forecast is more than 12 hours old.

Closest forecast is Ceuta Heliport, 662.6 nm (1,227.2 km) NE.

2023/02/04 09:00 (retrieved 19 hours ago)

TAF GECE 040800Z 0409/0509 09013KT 9999 FEW030 TX14/0412Z TN13/0507Z